createdAt,value
2018-12-20T00:00:56.534Z,16.30
2018-12-20T00:03:25.177Z,14.13
2018-12-20T00:05:52.725Z,15.80
2018-12-20T00:08:20.529Z,13.93
2018-12-20T00:10:48.166Z,15.00
2018-12-20T00:13:15.697Z,14.67
2018-12-20T00:15:43.221Z,14.70
2018-12-20T00:18:11.763Z,14.87
2018-12-20T00:20:39.265Z,13.93
2018-12-20T00:23:07.083Z,14.00
2018-12-20T00:25:34.788Z,13.43
2018-12-20T00:28:02.378Z,14.50
2018-12-20T00:30:29.917Z,13.90
2018-12-20T00:32:57.587Z,14.67
2018-12-20T00:35:25.408Z,13.90
2018-12-20T00:37:53.112Z,15.77
2018-12-20T00:40:20.872Z,14.27
2018-12-20T00:42:48.532Z,15.10
2018-12-20T00:45:16.174Z,17.13
2018-12-20T00:47:43.992Z,14.10
2018-12-20T00:50:11.765Z,15.70
2018-12-20T00:52:39.435Z,15.37
2018-12-20T00:55:07.173Z,15.70
2018-12-20T00:57:35.137Z,14.67
2018-12-20T01:00:03.353Z,13.33
2018-12-20T01:02:31.030Z,15.10
2018-12-20T01:04:58.605Z,14.67
2018-12-20T01:07:26.395Z,15.37
2018-12-20T01:09:54.165Z,14.27
2018-12-20T01:12:21.815Z,15.13
2018-12-20T01:14:49.523Z,14.90
2018-12-20T01:17:18.492Z,14.03
2018-12-20T01:19:46.226Z,16.17
2018-12-20T01:22:14.782Z,14.10
2018-12-20T01:24:42.542Z,14.70
2018-12-20T01:27:10.257Z,15.67
2018-12-20T01:29:37.999Z,15.10
2018-12-20T01:32:05.688Z,15.90
2018-12-20T01:34:33.266Z,15.07
2018-12-20T01:37:00.752Z,17.90
2018-12-20T01:39:28.715Z,14.77
2018-12-20T01:41:56.358Z,14.93
2018-12-20T01:44:23.998Z,16.37
2018-12-20T01:46:51.785Z,17.53
2018-12-20T01:49:19.629Z,15.27
2018-12-20T01:51:47.491Z,15.13
2018-12-20T01:54:15.071Z,14.80
2018-12-20T01:56:42.882Z,15.80
2018-12-20T01:59:10.558Z,16.17
2018-12-20T02:01:38.263Z,15.63
2018-12-20T02:04:05.757Z,14.37
2018-12-20T02:06:34.419Z,16.57
2018-12-20T02:09:02.086Z,16.83
2018-12-20T02:11:29.674Z,17.37
2018-12-20T02:13:57.338Z,15.87
2018-12-20T02:16:24.963Z,16.27
2018-12-20T02:18:52.571Z,16.30
2018-12-20T02:21:20.126Z,15.63
2018-12-20T02:23:47.758Z,17.20
2018-12-20T02:26:15.448Z,17.63
2018-12-20T02:28:43.149Z,16.40
2018-12-20T02:31:10.809Z,16.00
2018-12-20T02:33:38.409Z,15.70
2018-12-20T02:36:06.095Z,16.43
2018-12-20T02:38:33.602Z,17.30
2018-12-20T02:41:01.105Z,17.33
2018-12-20T02:43:28.808Z,18.50
2018-12-20T02:45:56.516Z,16.80
2018-12-20T02:48:24.201Z,17.63
2018-12-20T02:50:52.098Z,16.93
2018-12-20T02:53:19.861Z,17.00
2018-12-20T02:55:47.522Z,17.67
2018-12-20T02:58:15.776Z,18.07
2018-12-20T03:00:43.429Z,18.63
2018-12-20T03:03:10.970Z,18.13
2018-12-20T03:05:38.726Z,17.60
2018-12-20T03:08:06.513Z,19.70
2018-12-20T03:10:34.074Z,19.37
2018-12-20T03:13:01.662Z,20.57
2018-12-20T03:15:29.542Z,19.57
2018-12-20T03:17:57.127Z,19.93
2018-12-20T03:20:25.183Z,19.63
2018-12-20T03:22:52.859Z,19.17
2018-12-20T03:25:20.774Z,19.17
2018-12-20T03:27:48.596Z,19.50
2018-12-20T03:30:16.526Z,20.40
2018-12-20T03:32:44.328Z,21.07
2018-12-20T03:35:11.903Z,20.20
2018-12-20T03:37:39.551Z,19.27
2018-12-20T03:40:07.879Z,20.60
2018-12-20T03:42:35.439Z,20.27
2018-12-20T03:45:03.415Z,19.67
2018-12-20T03:47:31.324Z,22.80
2018-12-20T03:49:58.953Z,21.60
2018-12-20T03:52:26.657Z,21.43
2018-12-20T03:54:54.430Z,24.00
2018-12-20T03:57:22.098Z,22.57
2018-12-20T03:59:49.887Z,23.03
2018-12-20T04:02:17.748Z,26.50
2018-12-20T04:04:45.553Z,24.03
2018-12-20T04:07:13.472Z,27.47
2018-12-20T04:09:41.291Z,26.70
2018-12-20T04:12:09.041Z,26.33
2018-12-20T04:14:36.718Z,27.83
2018-12-20T04:17:04.365Z,26.90
2018-12-20T04:19:32.148Z,31.20
2018-12-20T04:21:59.960Z,31.47
2018-12-20T04:24:27.571Z,26.13
2018-12-20T04:26:55.065Z,22.80
2018-12-20T04:29:23.032Z,26.07
2018-12-20T04:31:50.638Z,27.13
2018-12-20T04:34:18.344Z,28.20
2018-12-20T04:36:45.964Z,26.93
2018-12-20T04:39:13.617Z,27.73
2018-12-20T04:41:41.210Z,29.13
2018-12-20T04:44:08.907Z,27.73
2018-12-20T04:46:36.484Z,28.43
2018-12-20T04:49:04.203Z,26.67
2018-12-20T04:51:31.918Z,29.67
2018-12-20T04:53:59.477Z,27.73
2018-12-20T04:56:27.257Z,29.77
2018-12-20T04:58:55.055Z,25.03
2018-12-20T05:01:22.989Z,26.07
2018-12-20T05:03:50.808Z,24.93
2018-12-20T05:06:18.529Z,28.27
2018-12-20T05:08:46.177Z,27.57
2018-12-20T05:11:13.818Z,25.73
2018-12-20T05:13:41.586Z,29.10
2018-12-20T05:16:09.385Z,27.97
2018-12-20T05:18:37.202Z,29.67
2018-12-20T05:21:04.812Z,30.60
2018-12-20T05:23:32.355Z,28.57
2018-12-20T05:26:00.142Z,26.63
2018-12-20T05:28:28.070Z,26.77
2018-12-20T05:30:55.840Z,29.43
2018-12-20T05:33:23.530Z,24.23
2018-12-20T05:35:51.191Z,26.73
2018-12-20T05:38:18.995Z,24.33
2018-12-20T05:40:46.794Z,26.67
2018-12-20T05:43:15.388Z,25.53
2018-12-20T05:45:43.124Z,25.53
2018-12-20T05:48:10.734Z,24.47
2018-12-20T05:50:38.518Z,28.60
2018-12-20T05:53:06.547Z,27.53
2018-12-20T05:55:34.318Z,27.17
2018-12-20T05:58:01.894Z,30.33
2018-12-20T06:00:29.760Z,28.27
2018-12-20T06:02:57.452Z,26.27
2018-12-20T06:05:25.141Z,30.63
2018-12-20T06:07:52.798Z,30.23
2018-12-20T06:10:20.820Z,25.33
2018-12-20T06:12:48.459Z,27.53
2018-12-20T06:15:15.990Z,30.10
2018-12-20T06:17:43.590Z,30.43
2018-12-20T06:20:11.174Z,28.30
2018-12-20T06:22:38.703Z,29.90
2018-12-20T06:25:06.207Z,31.43
2018-12-20T06:27:33.754Z,27.73
2018-12-20T06:30:01.247Z,30.10
2018-12-20T06:32:28.902Z,28.20
2018-12-20T06:34:57.289Z,30.43
2018-12-20T06:37:24.800Z,29.67
2018-12-20T06:39:52.320Z,30.00
2018-12-20T06:42:19.897Z,27.10
2018-12-20T06:44:47.443Z,28.90
2018-12-20T06:47:15.291Z,28.97
2018-12-20T06:49:42.913Z,28.30
2018-12-20T06:52:10.430Z,27.73
2018-12-20T06:54:37.943Z,27.03
2018-12-20T06:57:05.494Z,27.90
2018-12-20T06:59:33.085Z,31.03
2018-12-20T07:02:00.732Z,31.60
2018-12-20T07:04:28.286Z,29.83
2018-12-20T07:06:55.897Z,32.07
2018-12-20T07:09:23.572Z,33.97
2018-12-20T07:11:51.170Z,30.87
2018-12-20T07:14:18.889Z,30.67
2018-12-20T07:16:46.395Z,35.07
2018-12-20T07:19:13.911Z,35.13
2018-12-20T07:21:41.509Z,32.67
2018-12-20T07:24:09.083Z,33.20
2018-12-20T07:26:36.583Z,34.07
2018-12-20T07:29:04.107Z,35.07
2018-12-20T07:31:31.602Z,34.17
2018-12-20T07:33:59.147Z,36.73
2018-12-20T07:36:26.643Z,33.03
2018-12-20T07:38:54.305Z,31.87
2018-12-20T07:41:21.853Z,34.23
2018-12-20T07:43:49.429Z,35.30
2018-12-20T07:46:16.987Z,32.90
2018-12-20T07:48:44.520Z,34.73
2018-12-20T07:51:12.041Z,33.97
2018-12-20T07:53:39.557Z,33.20
2018-12-20T07:56:07.089Z,30.83
2018-12-20T07:58:34.892Z,33.33
2018-12-20T08:01:02.457Z,36.80
2018-12-20T08:03:29.959Z,35.53
2018-12-20T08:05:57.565Z,32.77
2018-12-20T08:08:25.140Z,32.20
2018-12-20T08:10:52.788Z,32.37
2018-12-20T08:13:20.291Z,31.73
2018-12-20T08:15:47.803Z,32.63
2018-12-20T08:18:15.424Z,31.60
2018-12-20T08:20:42.985Z,30.93
2018-12-20T08:23:10.559Z,34.27
2018-12-20T08:25:38.076Z,34.67
2018-12-20T08:28:06.059Z,33.07
2018-12-20T08:30:33.557Z,32.53
2018-12-20T08:33:01.113Z,30.97
2018-12-20T08:35:28.688Z,34.13
2018-12-20T08:37:56.241Z,29.97
2018-12-20T08:40:23.767Z,30.03
2018-12-20T08:42:51.303Z,32.03
2018-12-20T08:45:18.801Z,32.98
2018-12-20T08:47:46.319Z,34.43
2018-12-20T08:50:13.857Z,35.40
2018-12-20T08:52:41.396Z,34.50
2018-12-20T08:55:08.963Z,35.03
2018-12-20T08:57:37.238Z,35.83
2018-12-20T09:00:06.946Z,37.60
2018-12-20T09:02:34.457Z,35.33
2018-12-20T09:05:02.005Z,30.67
2018-12-20T09:07:29.522Z,30.03
2018-12-20T09:09:57.033Z,35.10
2018-12-20T09:12:24.533Z,32.40
2018-12-20T09:14:52.072Z,32.20
2018-12-20T09:17:19.599Z,31.33
2018-12-20T09:19:47.204Z,31.90
2018-12-20T09:22:14.783Z,29.00
2018-12-20T09:24:42.353Z,27.50
2018-12-20T09:27:10.405Z,28.47
2018-12-20T09:29:38.513Z,27.83
2018-12-20T09:32:06.805Z,29.17
2018-12-20T09:34:34.313Z,31.40
2018-12-20T09:37:01.871Z,30.07
2018-12-20T09:39:29.453Z,30.40
2018-12-20T09:41:56.968Z,30.57
2018-12-20T09:44:24.484Z,29.27
2018-12-20T09:46:53.949Z,28.13
2018-12-20T09:49:21.539Z,28.00
2018-12-20T09:51:49.774Z,28.93
2018-12-20T09:54:17.269Z,29.47
2018-12-20T09:56:44.849Z,30.27
2018-12-20T09:59:12.481Z,29.93
2018-12-20T10:01:40.013Z,30.50
2018-12-20T10:04:07.563Z,29.53
2018-12-20T10:06:35.062Z,28.97
2018-12-20T10:09:02.570Z,27.93
2018-12-20T10:11:30.175Z,27.50
2018-12-20T10:13:57.819Z,26.80
2018-12-20T10:16:25.311Z,27.63
2018-12-20T10:18:52.953Z,28.23
2018-12-20T10:21:21.937Z,29.03
2018-12-20T10:23:49.783Z,28.07
2018-12-20T10:26:17.300Z,30.83
2018-12-20T10:28:44.838Z,28.47
2018-12-20T10:31:12.394Z,25.63
2018-12-20T10:33:40.031Z,26.97
2018-12-20T10:36:07.524Z,26.97
2018-12-20T10:38:35.031Z,29.60
2018-12-20T10:41:02.574Z,26.13
2018-12-20T10:43:30.105Z,27.50
2018-12-20T10:45:57.610Z,26.03
2018-12-20T10:48:25.247Z,29.97
2018-12-20T10:50:52.803Z,27.07
2018-12-20T10:53:20.306Z,24.70
2018-12-20T10:55:47.826Z,28.13
2018-12-20T10:58:15.417Z,25.13
2018-12-20T11:00:48.633Z,25.00
2018-12-20T11:03:21.803Z,24.67
2018-12-20T11:05:55.035Z,25.10
2018-12-20T11:08:23.602Z,25.03
2018-12-20T11:10:53.207Z,23.97
2018-12-20T11:13:24.606Z,23.40
2018-12-20T11:15:52.177Z,24.30
2018-12-20T11:18:19.709Z,25.67
2018-12-20T11:20:47.213Z,24.23
2018-12-20T11:23:15.663Z,24.10
2018-12-20T11:25:43.852Z,24.83
2018-12-20T11:28:11.365Z,24.03
2018-12-20T11:30:38.923Z,24.23
2018-12-20T11:33:06.657Z,27.10
2018-12-20T11:35:34.245Z,24.00
2018-12-20T11:38:01.772Z,24.60
2018-12-20T11:40:29.345Z,24.87
2018-12-20T11:42:56.846Z,24.20
2018-12-20T11:45:24.428Z,26.67
2018-12-20T11:47:51.944Z,24.73
2018-12-20T11:50:19.469Z,25.40
2018-12-20T11:52:46.972Z,24.83
2018-12-20T11:55:15.339Z,23.13
2018-12-20T11:57:42.830Z,24.67
2018-12-20T12:00:10.438Z,25.50
2018-12-20T12:02:38.103Z,24.97
2018-12-20T12:05:05.753Z,23.83
2018-12-20T12:07:33.345Z,24.57
2018-12-20T12:10:00.865Z,24.17
2018-12-20T12:12:28.431Z,23.90
2018-12-20T12:14:55.955Z,25.40
2018-12-20T12:17:23.575Z,25.07
2018-12-20T12:19:51.203Z,25.53
2018-12-20T12:22:18.759Z,26.23
2018-12-20T12:24:46.746Z,27.07
2018-12-20T12:27:14.283Z,24.30
2018-12-20T12:29:41.806Z,27.83
2018-12-20T12:32:09.393Z,26.03
2018-12-20T12:34:37.047Z,25.27
2018-12-20T12:37:04.603Z,25.20
2018-12-20T12:39:32.710Z,24.90
2018-12-20T12:42:00.265Z,24.17
2018-12-20T12:44:27.844Z,25.43
2018-12-20T12:46:55.371Z,24.53
2018-12-20T12:49:24.095Z,25.77
2018-12-20T12:51:53.191Z,28.23
2018-12-20T12:54:21.054Z,25.00
2018-12-20T12:56:48.867Z,24.00
2018-12-20T12:59:16.406Z,26.47
2018-12-20T13:01:44.003Z,24.17
2018-12-20T13:04:11.506Z,25.30
2018-12-20T13:06:39.229Z,24.20
2018-12-20T13:09:06.916Z,27.57
2018-12-20T13:11:34.400Z,25.47
2018-12-20T13:14:02.037Z,25.87
2018-12-20T13:16:29.557Z,24.73
2018-12-20T13:18:57.170Z,24.80
2018-12-20T13:21:24.686Z,26.43
2018-12-20T13:23:52.254Z,25.37
2018-12-20T13:26:19.919Z,25.93
2018-12-20T13:28:47.498Z,25.33
2018-12-20T13:31:14.990Z,23.07
2018-12-20T13:33:42.529Z,24.33
2018-12-20T13:36:10.069Z,25.30
2018-12-20T13:38:37.633Z,28.10
2018-12-20T13:41:05.152Z,26.77
2018-12-20T13:43:32.861Z,23.10
2018-12-20T13:46:00.507Z,25.50
2018-12-20T13:48:28.053Z,25.40
2018-12-20T13:50:55.609Z,22.47
2018-12-20T13:53:23.177Z,24.07
2018-12-20T13:55:50.817Z,24.77
2018-12-20T13:58:18.349Z,25.83
2018-12-20T14:00:45.979Z,23.10
2018-12-20T14:03:13.497Z,25.70
2018-12-20T14:05:41.411Z,24.80
2018-12-20T14:08:08.985Z,25.90
2018-12-20T14:10:36.559Z,25.37
2018-12-20T14:13:04.578Z,28.33
2018-12-20T14:15:32.220Z,24.97
2018-12-20T14:17:59.773Z,24.40
2018-12-20T14:20:27.298Z,26.23
2018-12-20T14:22:54.811Z,25.03
2018-12-20T14:25:22.342Z,26.40
2018-12-20T14:27:49.984Z,25.50
2018-12-20T14:30:17.497Z,25.03
2018-12-20T14:32:45.099Z,24.87
2018-12-20T14:35:12.660Z,24.97
2018-12-20T14:37:40.214Z,27.83
2018-12-20T14:40:08.444Z,27.23
2018-12-20T14:42:37.804Z,27.07
2018-12-20T14:45:05.892Z,26.43
2018-12-20T14:47:33.513Z,25.80
2018-12-20T14:50:01.155Z,26.73
2018-12-20T14:52:28.646Z,25.27
2018-12-20T14:54:56.197Z,25.70
2018-12-20T14:57:23.745Z,26.80
2018-12-20T14:59:51.350Z,27.20
2018-12-20T15:02:18.953Z,27.40
2018-12-20T15:04:46.566Z,24.67
2018-12-20T15:07:14.112Z,28.77
2018-12-20T15:09:41.811Z,26.03
2018-12-20T15:12:09.363Z,26.63
2018-12-20T15:14:36.944Z,27.17
2018-12-20T15:17:04.506Z,28.20
2018-12-20T15:19:32.023Z,25.93
2018-12-20T15:21:59.561Z,29.83
2018-12-20T15:24:27.079Z,30.77
2018-12-20T15:26:55.754Z,25.10
2018-12-20T15:29:23.331Z,28.23
2018-12-20T15:31:53.526Z,28.53
2018-12-20T15:34:20.664Z,26.73
2018-12-20T15:36:48.214Z,28.87
2018-12-20T15:39:15.756Z,27.13
2018-12-20T15:41:43.404Z,27.77
2018-12-20T15:44:10.970Z,28.77
2018-12-20T15:46:38.539Z,28.40
2018-12-20T15:49:06.058Z,28.37
2018-12-20T15:51:34.048Z,27.73
2018-12-20T15:54:01.573Z,28.73
2018-12-20T15:56:29.150Z,28.13
2018-12-20T15:58:56.798Z,27.57
2018-12-20T16:01:24.362Z,28.20
2018-12-20T16:03:52.031Z,26.07
2018-12-20T16:06:19.598Z,28.97
2018-12-20T16:08:47.175Z,30.27
2018-12-20T16:11:14.833Z,24.93
2018-12-20T16:13:42.368Z,26.10
2018-12-20T16:16:09.908Z,25.90
2018-12-20T16:18:37.465Z,28.63
2018-12-20T16:21:05.555Z,29.03
2018-12-20T16:23:33.128Z,30.77
2018-12-20T16:26:00.729Z,28.85
2018-12-20T16:28:28.352Z,25.40
2018-12-20T16:30:55.871Z,26.77
2018-12-20T16:33:23.416Z,26.90
2018-12-20T16:35:50.926Z,25.97
2018-12-20T16:38:18.438Z,26.47
2018-12-20T16:40:46.010Z,28.87
2018-12-20T16:43:13.535Z,28.50
2018-12-20T16:45:41.184Z,27.47
2018-12-20T16:48:08.964Z,27.17
2018-12-20T16:50:36.507Z,26.70
2018-12-20T16:53:04.126Z,28.53
2018-12-20T16:55:31.708Z,30.27
2018-12-20T16:57:59.269Z,25.30
2018-12-20T17:00:26.808Z,23.70
2018-12-20T17:02:54.337Z,24.10
2018-12-20T17:05:21.914Z,27.10
2018-12-20T17:07:49.471Z,23.73
2018-12-20T17:10:17.101Z,24.30
2018-12-20T17:12:45.249Z,23.80
2018-12-20T17:15:12.958Z,23.47
2018-12-20T17:17:40.537Z,23.80
2018-12-20T17:20:08.177Z,23.40
2018-12-20T17:22:35.743Z,23.10
2018-12-20T17:25:05.031Z,21.53
2018-12-20T17:27:32.589Z,22.33
2018-12-20T17:30:00.595Z,22.77
2018-12-20T17:32:28.230Z,21.63
2018-12-20T17:34:55.806Z,20.77
2018-12-20T17:37:23.425Z,23.53
2018-12-20T17:39:50.969Z,23.27
2018-12-20T17:42:18.517Z,24.17
2018-12-20T17:44:46.453Z,23.50
2018-12-20T17:47:14.060Z,22.93
2018-12-20T17:49:42.045Z,21.47
2018-12-20T17:52:09.621Z,21.60
2018-12-20T17:54:37.279Z,22.43
2018-12-20T17:57:04.874Z,23.60
2018-12-20T17:59:32.403Z,21.80
2018-12-20T18:01:59.985Z,23.17
2018-12-20T18:04:28.691Z,23.63
2018-12-20T18:06:56.260Z,21.67
2018-12-20T18:09:23.873Z,23.57
2018-12-20T18:11:51.425Z,22.90
2018-12-20T18:14:18.959Z,22.93
2018-12-20T18:16:46.520Z,23.43
2018-12-20T18:19:14.087Z,24.17
2018-12-20T18:24:15.583Z,25.10
2018-12-20T18:26:43.152Z,23.93
2018-12-20T18:29:11.438Z,21.70
2018-12-20T18:31:39.009Z,25.37
2018-12-20T18:34:06.552Z,22.63
2018-12-20T18:36:34.890Z,21.43
2018-12-20T18:39:02.435Z,21.40
2018-12-20T18:41:29.960Z,18.77
2018-12-20T18:43:57.507Z,18.87
2018-12-20T18:46:26.237Z,17.27
2018-12-20T18:48:54.118Z,18.23
2018-12-20T18:51:21.643Z,23.70
2018-12-20T18:53:49.255Z,21.63
2018-12-20T18:56:18.288Z,18.30
2018-12-20T18:58:45.836Z,19.10
2018-12-20T19:01:13.502Z,22.40
2018-12-20T19:03:41.038Z,24.60
2018-12-20T19:06:09.868Z,26.57
2018-12-20T19:08:37.581Z,24.53
2018-12-20T19:11:05.315Z,21.13
2018-12-20T19:13:33.209Z,20.23
2018-12-20T19:16:00.897Z,20.97
2018-12-20T19:18:28.423Z,23.23
2018-12-20T19:20:56.890Z,20.30
2018-12-20T19:23:24.532Z,19.60
2018-12-20T19:25:52.216Z,23.13
2018-12-20T19:28:19.767Z,24.77
2018-12-20T19:30:47.618Z,24.40
2018-12-20T19:33:15.389Z,23.63
2018-12-20T19:35:43.674Z,21.33
2018-12-20T19:38:20.239Z,22.97
2018-12-20T19:40:41.583Z,21.97
2018-12-20T19:43:10.089Z,22.50
2018-12-20T19:45:45.966Z,26.53
2018-12-20T19:48:08.642Z,27.13
2018-12-20T19:50:36.941Z,22.45
2018-12-20T19:53:04.752Z,22.93
2018-12-20T19:55:32.419Z,29.73
2018-12-20T19:58:00.016Z,27.80
2018-12-20T20:00:27.584Z,28.40
2018-12-20T20:02:55.542Z,21.33
2018-12-20T20:05:23.119Z,21.63
2018-12-20T20:07:50.761Z,20.93
2018-12-20T20:10:18.516Z,19.83
2018-12-20T20:12:46.663Z,19.43
2018-12-20T20:15:16.689Z,21.33
2018-12-20T20:17:47.846Z,18.63
2018-12-20T20:20:19.120Z,20.33
2018-12-20T20:22:46.657Z,19.40
2018-12-20T20:25:14.243Z,19.80
2018-12-20T20:27:41.808Z,17.77
2018-12-20T20:30:10.760Z,18.37
2018-12-20T20:32:41.636Z,20.60
2018-12-20T20:35:11.205Z,17.27
2018-12-20T20:37:38.968Z,19.13
2018-12-20T20:40:08.274Z,19.57
2018-12-20T20:42:36.422Z,19.90
2018-12-20T20:45:06.404Z,19.07
2018-12-20T20:47:35.456Z,18.43
2018-12-20T20:50:04.273Z,19.63
2018-12-20T20:52:31.848Z,17.43
2018-12-20T20:54:59.486Z,16.40
2018-12-20T20:57:27.292Z,18.27
2018-12-20T20:59:54.930Z,16.80
2018-12-20T21:02:25.706Z,17.37
2018-12-20T21:04:53.374Z,16.67
2018-12-20T21:07:22.420Z,19.03
2018-12-20T21:09:49.937Z,15.77
2018-12-20T21:12:22.735Z,16.70
2018-12-20T21:14:52.446Z,15.57
2018-12-20T21:17:18.856Z,17.33
2018-12-20T21:19:47.368Z,16.50
2018-12-20T21:22:15.228Z,16.23
2018-12-20T21:24:42.816Z,18.47
2018-12-20T21:27:11.952Z,16.83
2018-12-20T21:29:40.003Z,16.70
2018-12-20T21:32:07.620Z,18.83
2018-12-20T21:34:36.094Z,16.47
2018-12-20T21:37:04.317Z,17.73
2018-12-20T21:39:32.532Z,16.53
2018-12-20T21:42:00.172Z,18.93
2018-12-20T21:44:28.528Z,18.63
2018-12-20T21:46:56.077Z,18.13
2018-12-20T21:49:23.658Z,17.47
2018-12-20T21:51:52.154Z,16.80
2018-12-20T21:54:19.716Z,19.83
2018-12-20T21:56:47.262Z,20.93
2018-12-20T21:59:14.807Z,20.03
2018-12-20T22:01:42.534Z,20.10
2018-12-20T22:04:10.135Z,20.27
2018-12-20T22:06:38.388Z,19.30
2018-12-20T22:09:06.088Z,20.67
2018-12-20T22:11:34.297Z,19.87
2018-12-20T22:14:02.419Z,21.70
2018-12-20T22:16:30.637Z,19.73
2018-12-20T22:18:59.904Z,21.30
2018-12-20T22:21:28.325Z,21.63
2018-12-20T22:23:58.140Z,22.17
2018-12-20T22:26:25.682Z,23.50
2018-12-20T22:28:53.265Z,23.33
2018-12-20T22:31:21.301Z,22.07
2018-12-20T22:33:48.922Z,24.00
2018-12-20T22:36:16.522Z,23.43
2018-12-20T22:38:45.698Z,23.50
2018-12-20T22:41:14.259Z,25.40
2018-12-20T22:43:41.878Z,23.20
2018-12-20T22:46:11.239Z,23.00
2018-12-20T22:48:39.734Z,24.03
2018-12-20T22:51:09.100Z,21.33
2018-12-20T22:53:36.715Z,24.30
2018-12-20T22:56:04.387Z,24.37
2018-12-20T22:58:31.935Z,23.97
2018-12-20T23:01:00.733Z,25.27
2018-12-20T23:03:29.561Z,24.77
2018-12-20T23:05:57.700Z,25.63
2018-12-20T23:08:25.249Z,25.33
2018-12-20T23:10:55.888Z,25.40
2018-12-20T23:13:23.443Z,26.63
2018-12-20T23:15:51.671Z,25.50
2018-12-20T23:18:20.309Z,25.73
2018-12-20T23:20:47.905Z,27.67
2018-12-20T23:23:17.685Z,25.86
2018-12-20T23:25:46.212Z,26.97
2018-12-20T23:28:13.733Z,25.93
2018-12-20T23:30:41.351Z,24.97
2018-12-20T23:33:08.991Z,25.73
2018-12-20T23:35:36.532Z,25.83
2018-12-20T23:38:04.596Z,26.10
2018-12-20T23:40:32.414Z,28.50
2018-12-20T23:43:00.026Z,27.53
2018-12-20T23:45:27.543Z,27.67
2018-12-20T23:47:55.098Z,29.17
2018-12-20T23:50:22.793Z,28.63
2018-12-20T23:52:50.464Z,27.63
2018-12-20T23:55:18.005Z,29.13
2018-12-20T23:57:45.532Z,27.07
